createdAt,value
2022-12-09T00:00:13.167Z,17.00
2022-12-09T00:02:40.277Z,17.17
2022-12-09T00:05:08.367Z,14.88
2022-12-09T00:07:43.839Z,15.77
2022-12-09T00:10:11.161Z,17.38
2022-12-09T00:12:38.093Z,14.75
2022-12-09T00:15:05.170Z,16.67
2022-12-09T00:17:32.220Z,14.23
2022-12-09T00:19:59.186Z,19.17
2022-12-09T00:22:29.791Z,12.25
2022-12-09T00:24:56.401Z,18.15
2022-12-09T00:27:23.126Z,16.85
2022-12-09T00:29:49.943Z,19.75
2022-12-09T00:32:16.827Z,16.15
2022-12-09T00:34:43.579Z,20.45
2022-12-09T00:37:10.339Z,13.55
2022-12-09T00:39:37.023Z,18.60
2022-12-09T00:42:03.904Z,16.08
2022-12-09T00:44:30.689Z,19.48
2022-12-09T00:46:57.664Z,17.38
2022-12-09T00:49:24.811Z,17.75
2022-12-09T00:51:54.089Z,16.05
2022-12-09T00:54:21.105Z,15.80
2022-12-09T00:56:47.866Z,19.63
2022-12-09T00:59:14.730Z,15.48
2022-12-09T01:01:41.513Z,16.45
2022-12-09T01:04:08.849Z,14.93
2022-12-09T01:06:36.193Z,16.15
2022-12-09T01:09:04.020Z,16.52
2022-12-09T01:11:31.143Z,18.20
2022-12-09T01:14:01.322Z,18.02
2022-12-09T01:16:31.045Z,16.23
2022-12-09T01:19:00.322Z,14.73
2022-12-09T01:21:28.728Z,14.02
2022-12-09T01:23:55.640Z,14.48
2022-12-09T01:26:22.658Z,15.20
2022-12-09T01:28:53.588Z,16.13
2022-12-09T01:31:23.260Z,17.25
2022-12-09T01:33:51.059Z,16.52
2022-12-09T01:36:29.063Z,14.88
2022-12-09T01:38:57.656Z,15.40
2022-12-09T01:41:24.723Z,15.50
2022-12-09T01:44:13.731Z,17.65
2022-12-09T01:46:41.306Z,14.93
2022-12-09T01:49:11.408Z,16.20
2022-12-09T01:51:38.542Z,17.40
2022-12-09T01:54:05.705Z,15.43
2022-12-09T01:56:34.089Z,17.83
2022-12-09T01:59:07.608Z,16.05
2022-12-09T02:01:34.655Z,20.05
2022-12-09T02:04:02.015Z,20.02
2022-12-09T02:06:31.685Z,18.42
2022-12-09T02:08:58.754Z,15.27
2022-12-09T02:11:52.902Z,20.02
2022-12-09T02:14:25.068Z,19.35
2022-12-09T02:17:10.087Z,18.70
2022-12-09T02:20:01.987Z,17.80
2022-12-09T02:22:39.028Z,16.45
2022-12-09T02:25:33.408Z,19.05
2022-12-09T02:28:11.970Z,17.80
2022-12-09T02:31:13.675Z,18.45
2022-12-09T02:34:15.505Z,19.15
2022-12-09T02:37:05.129Z,21.33
2022-12-09T02:40:00.088Z,17.27
2022-12-09T02:42:31.389Z,18.73
2022-12-09T02:45:02.730Z,14.80
2022-12-09T02:47:31.827Z,15.45
2022-12-09T02:50:02.828Z,15.27
2022-12-09T02:52:31.467Z,17.45
2022-12-09T02:55:00.895Z,16.17
2022-12-09T02:57:29.674Z,15.13
2022-12-09T02:59:56.834Z,15.55
2022-12-09T03:02:24.357Z,18.52
2022-12-09T03:05:21.436Z,15.23
2022-12-09T03:08:29.281Z,14.55
2022-12-09T03:11:02.935Z,15.88
2022-12-09T03:14:08.054Z,15.18
2022-12-09T03:16:35.885Z,13.43
2022-12-09T03:19:26.786Z,15.23
2022-12-09T03:21:57.518Z,14.27
2022-12-09T03:24:36.993Z,13.95
2022-12-09T03:27:07.716Z,12.13
2022-12-09T03:29:38.073Z,15.15
2022-12-09T03:32:05.343Z,14.43
2022-12-09T03:34:36.226Z,15.65
2022-12-09T03:37:06.688Z,16.00
2022-12-09T03:39:36.368Z,14.05
2022-12-09T03:42:10.296Z,17.48
2022-12-09T03:44:40.175Z,17.65
2022-12-09T03:47:07.712Z,12.75
2022-12-09T03:49:34.905Z,12.10
2022-12-09T03:52:04.621Z,15.10
2022-12-09T03:54:43.387Z,17.40
2022-12-09T03:57:19.219Z,15.52
2022-12-09T03:59:52.001Z,15.50
2022-12-09T04:02:19.120Z,16.15
2022-12-09T04:04:46.739Z,16.90
2022-12-09T04:07:13.899Z,15.90
2022-12-09T04:09:40.709Z,17.20
2022-12-09T04:12:11.056Z,16.50
2022-12-09T04:14:37.978Z,15.88
2022-12-09T04:17:05.587Z,17.10
2022-12-09T04:19:32.769Z,14.77
2022-12-09T04:22:02.427Z,15.80
2022-12-09T04:24:29.890Z,19.58
2022-12-09T04:26:56.600Z,17.23
2022-12-09T04:29:23.820Z,15.45
2022-12-09T04:31:51.130Z,18.15
2022-12-09T04:34:18.084Z,15.77
2022-12-09T04:36:45.005Z,17.27
2022-12-09T04:39:11.961Z,17.42
2022-12-09T04:41:41.496Z,18.02
2022-12-09T04:44:08.385Z,15.07
2022-12-09T04:46:37.547Z,15.27
2022-12-09T04:49:04.869Z,18.08
2022-12-09T04:51:39.441Z,16.25
2022-12-09T04:54:07.804Z,16.35
2022-12-09T04:56:34.911Z,18.73
2022-12-09T04:59:01.777Z,15.77
2022-12-09T05:01:31.578Z,17.15
2022-12-09T05:03:59.510Z,18.30
2022-12-09T05:06:27.446Z,13.30
2022-12-09T05:08:54.982Z,15.95
2022-12-09T05:11:24.261Z,17.20
2022-12-09T05:13:53.366Z,17.80
2022-12-09T05:16:24.083Z,16.42
2022-12-09T05:18:51.028Z,14.60
2022-12-09T05:21:23.853Z,15.52
2022-12-09T05:23:51.128Z,16.58
2022-12-09T05:26:21.492Z,17.02
2022-12-09T05:28:48.757Z,16.48
2022-12-09T05:31:19.945Z,17.60
2022-12-09T05:33:47.857Z,17.13
2022-12-09T05:36:20.265Z,19.40
2022-12-09T05:38:47.735Z,17.23
2022-12-09T05:41:14.721Z,15.43
2022-12-09T05:43:41.731Z,16.65
2022-12-09T05:46:09.344Z,17.00
2022-12-09T05:48:36.693Z,17.20
2022-12-09T05:51:07.294Z,18.58
2022-12-09T05:53:34.685Z,16.95
2022-12-09T05:56:02.186Z,16.17
2022-12-09T05:58:29.584Z,16.50
2022-12-09T06:00:58.060Z,17.58
2022-12-09T06:03:25.416Z,16.27
2022-12-09T06:05:57.886Z,18.27
2022-12-09T06:08:24.786Z,19.05
2022-12-09T06:10:52.229Z,18.52
2022-12-09T06:13:20.092Z,17.13
2022-12-09T06:15:47.685Z,21.67
2022-12-09T06:18:17.555Z,19.65
2022-12-09T06:20:45.016Z,17.90
2022-12-09T06:23:12.097Z,18.65
2022-12-09T06:25:44.792Z,20.52
2022-12-09T06:28:12.420Z,19.25
2022-12-09T06:30:39.469Z,22.23
2022-12-09T06:33:22.874Z,22.88
2022-12-09T06:35:53.397Z,18.70
2022-12-09T06:38:20.261Z,18.95
2022-12-09T06:40:47.275Z,23.08
2022-12-09T06:43:14.493Z,27.77
2022-12-09T06:45:41.266Z,26.73
2022-12-09T06:48:08.505Z,25.42
2022-12-09T06:50:35.574Z,31.05
2022-12-09T06:53:02.571Z,32.33
2022-12-09T06:55:31.822Z,27.52
2022-12-09T06:58:01.806Z,31.75
2022-12-09T07:00:33.552Z,28.00
2022-12-09T07:03:03.686Z,37.60
2022-12-09T07:05:32.351Z,27.30
2022-12-09T07:07:59.632Z,28.27
2022-12-09T07:10:26.769Z,30.98
2022-12-09T07:12:54.236Z,31.98
2022-12-09T07:15:21.133Z,27.92
2022-12-09T07:17:48.340Z,26.20
2022-12-09T07:20:15.748Z,29.15
2022-12-09T07:22:42.633Z,35.15
2022-12-09T07:25:10.343Z,35.00
2022-12-09T07:27:38.118Z,31.40
2022-12-09T07:30:08.194Z,32.92
2022-12-09T07:32:35.341Z,29.02
2022-12-09T07:35:02.298Z,28.80
2022-12-09T07:37:29.675Z,32.05
2022-12-09T07:39:56.513Z,29.45
2022-12-09T07:42:23.436Z,32.85
2022-12-09T07:44:50.386Z,37.33
2022-12-09T07:47:17.383Z,37.92
2022-12-09T07:49:44.690Z,34.40
2022-12-09T07:52:15.746Z,35.47
2022-12-09T07:54:42.901Z,37.72
2022-12-09T07:57:10.069Z,32.35
2022-12-09T07:59:37.234Z,39.30
2022-12-09T08:02:06.522Z,36.83
2022-12-09T08:04:35.697Z,34.47
2022-12-09T08:07:03.512Z,32.67
2022-12-09T08:09:31.082Z,41.17
2022-12-09T08:12:01.310Z,33.85
2022-12-09T08:14:29.065Z,29.05
2022-12-09T08:16:57.155Z,42.08
2022-12-09T08:19:24.014Z,39.60
2022-12-09T08:21:54.537Z,35.92
2022-12-09T08:24:24.195Z,34.03
2022-12-09T08:26:51.543Z,41.65
2022-12-09T08:29:18.533Z,35.17
2022-12-09T08:31:47.580Z,40.08
2022-12-09T08:34:16.922Z,40.58
2022-12-09T08:36:46.488Z,36.67
2022-12-09T08:39:14.009Z,28.92
2022-12-09T08:41:41.174Z,32.25
2022-12-09T08:44:18.777Z,29.63
2022-12-09T08:46:49.210Z,33.53
2022-12-09T08:49:22.334Z,38.63
2022-12-09T08:51:53.678Z,29.15
2022-12-09T08:54:20.844Z,30.95
2022-12-09T08:56:49.510Z,32.63
2022-12-09T08:59:16.947Z,49.80
2022-12-09T09:01:44.732Z,36.38
2022-12-09T09:04:13.803Z,37.03
2022-12-09T09:06:43.475Z,33.75
2022-12-09T09:09:13.270Z,30.80
2022-12-09T09:11:41.339Z,30.83
2022-12-09T09:14:10.321Z,25.20
2022-12-09T09:16:39.782Z,26.85
2022-12-09T09:19:07.892Z,26.63
2022-12-09T09:21:35.775Z,25.65
2022-12-09T09:24:11.375Z,29.30
2022-12-09T09:26:44.269Z,26.40
2022-12-09T09:29:12.684Z,23.40
2022-12-09T09:31:39.960Z,26.05
2022-12-09T09:34:07.582Z,20.88
2022-12-09T09:36:34.881Z,33.20
2022-12-09T09:39:02.235Z,26.00
2022-12-09T09:41:41.003Z,27.92
2022-12-09T09:44:22.515Z,23.67
2022-12-09T09:46:51.745Z,21.48
2022-12-09T09:49:59.883Z,23.80
2022-12-09T09:52:29.015Z,19.83
2022-12-09T09:54:56.479Z,27.10
2022-12-09T09:57:37.981Z,22.38
2022-12-09T10:00:22.443Z,21.75
2022-12-09T10:02:56.072Z,24.90
2022-12-09T10:05:36.536Z,21.65
2022-12-09T10:08:18.381Z,21.77
2022-12-09T10:11:23.378Z,25.90
2022-12-09T10:13:58.661Z,21.88
2022-12-09T10:16:35.768Z,21.23
2022-12-09T10:19:09.672Z,24.30
2022-12-09T10:21:41.068Z,26.52
2022-12-09T10:24:27.805Z,25.90
2022-12-09T10:27:01.463Z,22.58
2022-12-09T10:30:00.865Z,21.35
2022-12-09T10:32:30.876Z,25.70
2022-12-09T10:34:58.271Z,26.88
2022-12-09T10:37:29.291Z,27.45
2022-12-09T10:40:19.714Z,23.42
2022-12-09T10:43:06.596Z,27.38
2022-12-09T10:46:07.987Z,22.55
2022-12-09T10:48:23.090Z,24.48
2022-12-09T10:50:56.834Z,26.98
2022-12-09T10:53:24.643Z,23.20
2022-12-09T10:55:53.190Z,27.48
2022-12-09T10:58:23.076Z,25.52
2022-12-09T11:01:09.598Z,25.48
2022-12-09T11:03:50.012Z,29.50
2022-12-09T11:06:28.977Z,26.38
2022-12-09T11:08:59.102Z,27.23
2022-12-09T11:11:47.975Z,28.67
2022-12-09T11:14:24.826Z,26.92
2022-12-09T11:17:12.915Z,32.80
2022-12-09T11:19:40.734Z,27.65
2022-12-09T11:22:33.665Z,27.90
2022-12-09T11:25:12.993Z,28.80
2022-12-09T11:28:20.379Z,27.13
2022-12-09T11:33:54.411Z,24.17
2022-12-09T11:36:24.469Z,20.83
2022-12-09T11:38:54.584Z,24.52
2022-12-09T11:41:41.630Z,22.33
2022-12-09T11:44:34.354Z,25.73
2022-12-09T11:47:07.164Z,23.58
2022-12-09T11:49:44.968Z,21.38
2022-12-09T11:52:17.268Z,20.80
2022-12-09T11:55:00.865Z,25.48
2022-12-09T11:57:36.812Z,19.77
2022-12-09T12:00:31.075Z,21.92
2022-12-09T12:03:14.742Z,18.55
2022-12-09T12:05:44.030Z,20.55
2022-12-09T12:08:29.847Z,20.63
2022-12-09T12:10:57.957Z,22.95
2022-12-09T12:13:46.484Z,22.95
2022-12-09T12:17:00.862Z,28.00
2022-12-09T12:19:41.106Z,27.27
2022-12-09T12:22:29.505Z,23.05
2022-12-09T12:25:21.814Z,20.33
2022-12-09T12:27:51.900Z,22.42
2022-12-09T12:30:21.540Z,20.45
2022-12-09T12:36:05.999Z,23.60
2022-12-09T12:38:51.077Z,23.30
2022-12-09T12:41:47.222Z,24.98
2022-12-09T12:44:44.726Z,27.55
2022-12-09T12:47:59.174Z,24.88
2022-12-09T12:50:43.844Z,28.88
2022-12-09T12:53:19.125Z,36.08
2022-12-09T12:55:55.030Z,36.60
2022-12-09T12:58:40.086Z,37.03
2022-12-09T13:01:09.786Z,33.92
2022-12-09T13:04:13.899Z,39.95
2022-12-09T13:06:46.131Z,46.45
2022-12-09T13:09:53.796Z,36.78
2022-12-09T13:12:45.728Z,35.55
2022-12-09T13:15:14.804Z,37.95
2022-12-09T13:17:42.635Z,38.45
2022-12-09T13:20:34.715Z,39.60
2022-12-09T13:23:25.082Z,40.03
2022-12-09T13:26:27.297Z,42.47
2022-12-09T13:29:05.527Z,39.85
2022-12-09T13:31:35.362Z,47.60
2022-12-09T13:34:13.794Z,46.50
2022-12-09T13:36:48.197Z,45.38
2022-12-09T13:39:39.355Z,40.88
2022-12-09T13:42:46.917Z,38.05
2022-12-09T13:45:32.743Z,43.20
2022-12-09T13:48:25.561Z,41.72
2022-12-09T13:50:54.359Z,39.63
2022-12-09T13:53:35.321Z,40.35
2022-12-09T13:56:23.480Z,37.95
2022-12-09T13:59:11.546Z,41.33
2022-12-09T14:01:47.013Z,44.15
2022-12-09T14:04:19.433Z,35.65
2022-12-09T14:06:46.331Z,37.95
2022-12-09T14:09:24.172Z,35.75
2022-12-09T14:12:00.698Z,31.08
2022-12-09T14:14:27.336Z,23.60
2022-12-09T14:16:59.141Z,25.73
2022-12-09T14:19:25.743Z,28.10
2022-12-09T14:22:21.030Z,24.55
2022-12-09T14:24:52.065Z,24.48
2022-12-09T14:27:25.615Z,24.70
2022-12-09T14:30:02.641Z,24.25
2022-12-09T14:32:56.383Z,21.88
2022-12-09T14:35:48.323Z,18.45
2022-12-09T14:38:24.899Z,22.60
2022-12-09T14:40:56.721Z,17.52
2022-12-09T14:43:49.991Z,22.45
2022-12-09T14:46:23.104Z,17.75
2022-12-09T14:48:57.401Z,19.48
2022-12-09T14:51:28.008Z,23.30
2022-12-09T14:54:01.013Z,22.35
2022-12-09T14:56:30.544Z,22.60
2022-12-09T14:59:10.267Z,23.73
2022-12-09T15:01:57.405Z,33.72
2022-12-09T15:04:25.564Z,23.88
2022-12-09T15:07:09.911Z,25.00
2022-12-09T15:09:37.564Z,20.60
2022-12-09T15:12:10.669Z,20.02
2022-12-09T15:14:38.643Z,23.23
2022-12-09T15:17:06.165Z,25.10
2022-12-09T15:19:59.870Z,24.88
2022-12-09T15:22:24.981Z,29.15
2022-12-09T15:24:52.234Z,28.55
2022-12-09T15:27:21.921Z,29.00
2022-12-09T15:29:51.890Z,29.98
2022-12-09T15:32:21.008Z,25.10
2022-12-09T15:34:47.813Z,29.00
2022-12-09T15:37:15.007Z,29.85
2022-12-09T15:39:50.320Z,27.50
2022-12-09T15:42:22.177Z,29.00
2022-12-09T15:44:55.144Z,29.33
2022-12-09T15:47:33.551Z,29.15
2022-12-09T15:50:14.827Z,24.70
2022-12-09T15:53:03.715Z,27.02
2022-12-09T15:55:37.576Z,21.60
2022-12-09T15:58:13.696Z,29.75
2022-12-09T16:00:43.852Z,27.20
2022-12-09T16:03:10.466Z,31.23
2022-12-09T16:05:41.785Z,27.00
2022-12-09T16:08:09.364Z,29.92
2022-12-09T16:10:47.592Z,29.35
2022-12-09T16:13:19.240Z,29.77
2022-12-09T16:15:54.489Z,32.58
2022-12-09T16:18:23.886Z,28.50
2022-12-09T16:21:04.017Z,27.20
2022-12-09T16:23:30.740Z,33.50
2022-12-09T16:26:06.369Z,28.08
2022-12-09T16:28:33.777Z,31.00
2022-12-09T16:31:03.213Z,30.67
2022-12-09T16:33:35.427Z,30.60
2022-12-09T16:36:06.949Z,32.08
2022-12-09T16:38:35.464Z,28.00
2022-12-09T16:41:07.936Z,27.83
2022-12-09T16:43:34.781Z,30.92
2022-12-09T16:46:27.868Z,26.45
2022-12-09T16:48:54.613Z,33.40
2022-12-09T16:51:25.234Z,34.70
2022-12-09T16:53:52.827Z,33.65
2022-12-09T16:56:21.008Z,34.30
2022-12-09T16:58:47.770Z,33.28
2022-12-09T17:01:15.883Z,35.67
2022-12-09T17:04:09.895Z,34.13
2022-12-09T17:06:36.565Z,32.53
2022-12-09T17:09:03.514Z,30.75
2022-12-09T17:11:30.114Z,33.97
2022-12-09T17:13:56.832Z,28.42
2022-12-09T17:16:28.496Z,31.75
2022-12-09T17:18:57.756Z,31.60
2022-12-09T17:21:33.437Z,34.60
2022-12-09T17:24:00.038Z,28.17
2022-12-09T17:26:26.882Z,32.00
2022-12-09T17:28:59.835Z,29.90
2022-12-09T17:31:28.551Z,28.90
2022-12-09T17:33:57.010Z,31.10
2022-12-09T17:36:24.063Z,32.00
2022-12-09T17:38:51.439Z,25.85
2022-12-09T17:41:20.837Z,29.08
2022-12-09T17:43:47.813Z,32.65
2022-12-09T17:46:15.047Z,28.02
2022-12-09T17:48:42.175Z,25.63
2022-12-09T17:51:16.886Z,33.53
2022-12-09T17:53:44.158Z,36.25
2022-12-09T17:56:16.124Z,30.17
2022-12-09T17:58:43.304Z,29.38
2022-12-09T18:01:20.973Z,33.55
2022-12-09T18:03:56.215Z,29.42
2022-12-09T18:06:24.170Z,28.77
2022-12-09T18:08:54.287Z,27.85
2022-12-09T18:11:22.482Z,28.85
2022-12-09T18:13:49.416Z,31.80
2022-12-09T18:16:17.045Z,30.60
2022-12-09T18:18:43.805Z,29.00
2022-12-09T18:21:15.689Z,27.75
2022-12-09T18:23:43.244Z,25.58
2022-12-09T18:26:13.307Z,29.45
2022-12-09T18:28:43.283Z,25.27
2022-12-09T18:31:13.107Z,25.55
2022-12-09T18:33:40.401Z,25.15
2022-12-09T18:36:12.349Z,28.42
2022-12-09T18:38:39.898Z,33.45
2022-12-09T18:41:23.657Z,24.52
2022-12-09T18:43:53.289Z,28.40
2022-12-09T18:46:25.677Z,22.08
2022-12-09T18:49:07.450Z,30.58
2022-12-09T18:51:34.177Z,25.60
2022-12-09T18:54:01.850Z,28.38
2022-12-09T18:56:28.940Z,22.45
2022-12-09T18:59:07.902Z,22.83
2022-12-09T19:01:39.914Z,27.05
2022-12-09T19:04:12.902Z,24.55
2022-12-09T19:06:44.291Z,19.13
2022-12-09T19:09:16.557Z,23.88
2022-12-09T19:11:44.392Z,22.52
2022-12-09T19:14:18.216Z,24.95
2022-12-09T19:16:45.901Z,20.77
2022-12-09T19:19:15.703Z,22.00
2022-12-09T19:21:43.971Z,23.17
2022-12-09T19:24:19.185Z,21.60
2022-12-09T19:26:46.648Z,17.98
2022-12-09T19:29:18.632Z,17.98
2022-12-09T19:31:48.111Z,22.35
2022-12-09T19:34:19.105Z,24.52
2022-12-09T19:36:46.743Z,22.38
2022-12-09T19:39:14.416Z,26.50
2022-12-09T19:41:42.044Z,26.15
2022-12-09T19:44:21.698Z,23.00
2022-12-09T19:46:58.205Z,23.05
2022-12-09T19:49:25.236Z,23.20
2022-12-09T19:51:53.044Z,24.40
2022-12-09T19:54:28.102Z,24.55
2022-12-09T19:56:55.878Z,21.65
2022-12-09T19:59:22.727Z,24.45
2022-12-09T20:01:49.871Z,25.13
2022-12-09T20:07:09.246Z,22.30
2022-12-09T20:09:37.947Z,17.17
2022-12-09T20:12:04.952Z,19.40
2022-12-09T20:14:31.982Z,17.45
2022-12-09T20:16:58.901Z,16.23
2022-12-09T20:19:25.629Z,16.17
2022-12-09T20:21:52.548Z,19.80
2022-12-09T20:24:19.320Z,18.52
2022-12-09T20:26:46.026Z,20.55
2022-12-09T20:29:13.027Z,21.35
2022-12-09T20:31:41.597Z,18.55
2022-12-09T20:34:16.391Z,19.40
2022-12-09T20:36:44.588Z,22.83
2022-12-09T20:39:21.845Z,19.65
2022-12-09T20:41:48.727Z,20.50
2022-12-09T20:44:16.734Z,21.13
2022-12-09T20:46:48.924Z,18.52
2022-12-09T20:49:16.176Z,19.20
2022-12-09T20:51:45.484Z,24.13
2022-12-09T20:54:12.880Z,21.35
2022-12-09T20:56:40.086Z,23.42
2022-12-09T20:59:09.125Z,20.17
2022-12-09T21:01:37.480Z,21.50
2022-12-09T21:04:08.807Z,24.27
2022-12-09T21:06:38.108Z,21.20
2022-12-09T21:09:08.925Z,18.17
2022-12-09T21:11:37.325Z,22.77
2022-12-09T21:14:05.266Z,24.27
2022-12-09T21:16:33.790Z,19.58
2022-12-09T21:19:02.707Z,18.67
2022-12-09T21:21:32.106Z,18.52
2022-12-09T21:23:59.939Z,17.75
2022-12-09T21:26:27.010Z,17.55
2022-12-09T21:28:54.050Z,19.50
2022-12-09T21:31:27.901Z,20.30
2022-12-09T21:33:56.685Z,19.58
2022-12-09T21:36:28.492Z,17.60
2022-12-09T21:38:55.840Z,20.98
2022-12-09T21:41:27.539Z,17.67
2022-12-09T21:43:58.099Z,17.15
2022-12-09T21:46:27.246Z,20.42
2022-12-09T21:49:01.542Z,20.05
2022-12-09T21:51:30.256Z,18.63
2022-12-09T21:53:57.685Z,20.38
2022-12-09T21:56:27.918Z,18.42
2022-12-09T21:58:57.102Z,19.02
2022-12-09T22:01:32.108Z,16.80
2022-12-09T22:04:00.652Z,14.85
2022-12-09T22:06:28.725Z,16.50
2022-12-09T22:08:55.415Z,15.63
2022-12-09T22:11:25.071Z,16.40
2022-12-09T22:13:52.599Z,15.90
2022-12-09T22:16:23.746Z,15.57
2022-12-09T22:18:53.529Z,19.55
2022-12-09T22:21:25.160Z,17.75
2022-12-09T22:23:56.722Z,16.80
2022-12-09T22:26:24.031Z,16.60
2022-12-09T22:28:53.667Z,17.60
2022-12-09T22:31:23.474Z,18.45
2022-12-09T22:33:51.866Z,15.98
2022-12-09T22:36:19.294Z,15.93
2022-12-09T22:38:46.714Z,19.75
2022-12-09T22:41:19.142Z,16.95
2022-12-09T22:43:45.983Z,17.02
2022-12-09T22:46:15.297Z,13.40
2022-12-09T22:48:42.824Z,15.63
2022-12-09T22:51:18.359Z,16.10
2022-12-09T22:53:48.707Z,16.55
2022-12-09T22:56:15.300Z,15.30
2022-12-09T22:58:42.133Z,13.98
2022-12-09T23:01:20.502Z,13.10
2022-12-09T23:03:47.666Z,15.27
2022-12-09T23:06:14.620Z,14.63
2022-12-09T23:08:44.627Z,15.88
2022-12-09T23:11:20.349Z,13.80
2022-12-09T23:13:47.328Z,15.07
2022-12-09T23:16:16.776Z,13.88
2022-12-09T23:18:43.669Z,17.08
2022-12-09T23:21:13.593Z,12.82
2022-12-09T23:23:40.815Z,15.32
2022-12-09T23:26:15.903Z,15.57
2022-12-09T23:28:48.726Z,13.45
2022-12-09T23:31:17.531Z,15.90
2022-12-09T23:33:45.509Z,13.77
2022-12-09T23:36:17.736Z,15.73
2022-12-09T23:38:44.982Z,13.75
2022-12-09T23:41:12.765Z,14.10
2022-12-09T23:43:39.592Z,12.80
2022-12-09T23:46:14.846Z,19.83
2022-12-09T23:48:46.179Z,18.10
2022-12-09T23:51:15.719Z,15.00
2022-12-09T23:53:43.642Z,15.25
2022-12-09T23:56:15.652Z,17.45
2022-12-09T23:58:42.654Z,15.15
